Keego Harbor, Michigan
Current Conditions -  °F | °C
As of 4:53 AM on Sunday 26 Oct 2014 (Local Time) from KPTK Reporting Station
Clear Clear  
Wind Chill: 42°   Ceiling: Unl
Heat Index: 47°   Visibility: 10mi
Dew Point: 29°   Wind: 10mph
Humidity: 50%   Direction: 290°WNW
Pressure: 29.84"   Gusts: NA
Location:  42.61°N, 83.34°W
Report Text: KPTK 260853Z AUTO 29009KT 10SM CLR 08/M02 A2984 RMK AO2 SLP105 T00831017 53008
Loading
Personal Weather Stations






























Interactive Weather Map
Tropical Storm Tracking
New forecast layout! Learn more

10-Day Weather Forecast

Advertisements
Track Severe Weather on mobile